sensor_id;sensor_type;location;lat;lon;timestamp;pressure;altitude;pressure_sealevel;temperature;humidity
57562;BME280;43397;51.530;5.974;2022-08-19T00:00:56;100941.03;;;18.82;100.00
57562;BME280;43397;51.530;5.974;2022-08-19T00:03:22;100940.25;;;18.79;100.00
57562;BME280;43397;51.530;5.974;2022-08-19T00:05:48;100948.00;;;18.88;100.00
57562;BME280;43397;51.530;5.974;2022-08-19T00:08:14;100947.41;;;19.02;100.00
57562;BME280;43397;51.530;5.974;2022-08-19T00:10:41;100942.50;;;18.67;100.00
57562;BME280;43397;51.530;5.974;2022-08-19T00:13:07;100940.44;;;18.74;100.00
57562;BME280;43397;51.530;5.974;2022-08-19T00:15:32;100939.16;;;18.84;100.00
57562;BME280;43397;51.530;5.974;2022-08-19T00:17:58;100939.84;;;18.66;100.00
57562;BME280;43397;51.530;5.974;2022-08-19T00:20:24;100938.13;;;18.87;100.00
57562;BME280;43397;51.530;5.974;2022-08-19T00:22:50;100942.72;;;18.85;100.00
57562;BME280;43397;51.530;5.974;2022-08-19T00:25:16;100940.13;;;19.04;100.00
57562;BME280;43397;51.530;5.974;2022-08-19T00:27:43;100935.97;;;18.97;100.00
57562;BME280;43397;51.530;5.974;2022-08-19T00:30:10;100942.31;;;18.72;100.00
57562;BME280;43397;51.530;5.974;2022-08-19T00:32:36;100943.97;;;18.53;100.00
57562;BME280;43397;51.530;5.974;2022-08-19T00:35:03;100950.72;;;18.64;100.00
57562;BME280;43397;51.530;5.974;2022-08-19T00:37:29;100946.88;;;18.70;100.00
57562;BME280;43397;51.530;5.974;2022-08-19T00:39:56;100942.50;;;18.67;100.00
57562;BME280;43397;51.530;5.974;2022-08-19T00:42:22;100948.41;;;18.77;100.00
57562;BME280;43397;51.530;5.974;2022-08-19T00:44:49;100948.13;;;18.61;100.00
57562;BME280;43397;51.530;5.974;2022-08-19T00:47:15;100952.25;;;18.48;100.00
57562;BME280;43397;51.530;5.974;2022-08-19T00:49:43;100937.47;;;18.36;100.00
57562;BME280;43397;51.530;5.974;2022-08-19T00:52:14;100939.63;;;18.26;100.00
57562;BME280;43397;51.530;5.974;2022-08-19T00:54:41;100934.16;;;18.29;100.00
57562;BME280;43397;51.530;5.974;2022-08-19T00:57:09;100944.41;;;18.42;100.00
57562;BME280;43397;51.530;5.974;2022-08-19T00:59:39;100948.72;;;18.46;100.00
57562;BME280;43397;51.530;5.974;2022-08-19T01:02:07;100946.63;;;18.54;100.00
57562;BME280;43397;51.530;5.974;2022-08-19T01:04:34;100952.75;;;18.36;100.00
57562;BME280;43397;51.530;5.974;2022-08-19T01:07:01;100948.22;;;18.36;100.00
57562;BME280;43397;51.530;5.974;2022-08-19T01:09:27;100946.53;;;18.34;100.00
57562;BME280;43397;51.530;5.974;2022-08-19T01:11:54;100959.03;;;18.35;100.00
57562;BME280;43397;51.530;5.974;2022-08-19T01:14:20;100949.56;;;18.24;100.00
57562;BME280;43397;51.530;5.974;2022-08-19T01:16:46;100949.25;;;18.10;100.00
57562;BME280;43397;51.530;5.974;2022-08-19T01:19:18;100948.34;;;18.33;100.00
57562;BME280;43397;51.530;5.974;2022-08-19T01:21:50;100941.44;;;18.26;100.00
57562;BME280;43397;51.530;5.974;2022-08-19T01:24:19;100937.69;;;18.30;100.00
57562;BME280;43397;51.530;5.974;2022-08-19T01:26:46;100946.97;;;18.23;100.00
57562;BME280;43397;51.530;5.974;2022-08-19T01:29:12;100951.69;;;18.16;100.00
57562;BME280;43397;51.530;5.974;2022-08-19T01:31:38;100951.38;;;18.00;100.00
57562;BME280;43397;51.530;5.974;2022-08-19T01:34:05;100954.28;;;17.94;100.00
57562;BME280;43397;51.530;5.974;2022-08-19T01:36:34;100961.22;;;18.01;100.00
57562;BME280;43397;51.530;5.974;2022-08-19T01:39:02;100960.63;;;17.93;100.00
57562;BME280;43397;51.530;5.974;2022-08-19T01:41:30;100961.41;;;17.97;100.00
57562;BME280;43397;51.530;5.974;2022-08-19T01:43:55;100953.72;;;17.86;100.00
57562;BME280;43397;51.530;5.974;2022-08-19T01:46:21;100947.81;;;18.00;100.00
57562;BME280;43397;51.530;5.974;2022-08-19T01:48:47;100949.81;;;18.18;100.00
57562;BME280;43397;51.530;5.974;2022-08-19T01:51:13;100952.91;;;18.31;100.00
57562;BME280;43397;51.530;5.974;2022-08-19T01:53:40;100958.34;;;18.06;100.00
57562;BME280;43397;51.530;5.974;2022-08-19T01:56:07;100959.34;;;18.03;100.00
57562;BME280;43397;51.530;5.974;2022-08-19T01:58:38;100956.19;;;17.92;100.00
57562;BME280;43397;51.530;5.974;2022-08-19T02:01:07;100960.63;;;17.93;100.00
57562;BME280;43397;51.530;5.974;2022-08-19T02:03:34;100968.41;;;18.01;100.00
57562;BME280;43397;51.530;5.974;2022-08-19T02:06:01;100971.88;;;17.79;100.00
57562;BME280;43397;51.530;5.974;2022-08-19T02:08:28;100976.16;;;17.85;100.00
57562;BME280;43397;51.530;5.974;2022-08-19T02:10:54;100971.59;;;17.87;100.00
57562;BME280;43397;51.530;5.974;2022-08-19T02:13:21;100969.56;;;17.94;100.00
57562;BME280;43397;51.530;5.974;2022-08-19T02:15:48;100979.97;;;18.03;100.00
57562;BME280;43397;51.530;5.974;2022-08-19T02:18:14;100976.81;;;18.15;100.00
57562;BME280;43397;51.530;5.974;2022-08-19T02:20:41;100972.22;;;18.19;100.00
57562;BME280;43397;51.530;5.974;2022-08-19T02:23:09;100972.31;;;17.92;100.00
57562;BME280;43397;51.530;5.974;2022-08-19T02:25:35;100975.75;;;17.96;100.00
57562;BME280;43397;51.530;5.974;2022-08-19T02:28:02;100974.03;;;17.95;100.00
57562;BME280;43397;51.530;5.974;2022-08-19T02:30:28;100972.41;;;17.89;100.00
57562;BME280;43397;51.530;5.974;2022-08-19T02:32:55;100981.13;;;17.71;100.00
57562;BME280;43397;51.530;5.974;2022-08-19T02:35:21;100986.13;;;17.81;100.00
57562;BME280;43397;51.530;5.974;2022-08-19T02:37:47;100978.31;;;17.74;100.00
57562;BME280;43397;51.530;5.974;2022-08-19T02:40:13;100986.22;;;17.78;100.00
57562;BME280;43397;51.530;5.974;2022-08-19T02:42:39;100979.53;;;17.65;100.00
57562;BME280;43397;51.530;5.974;2022-08-19T02:45:05;100980.19;;;17.72;100.00
57562;BME280;43397;51.530;5.974;2022-08-19T02:47:31;100979.47;;;17.66;100.00
57562;BME280;43397;51.530;5.974;2022-08-19T02:50:00;100978.63;;;17.66;100.00
57562;BME280;43397;51.530;5.974;2022-08-19T02:52:26;100977.16;;;17.81;100.00
57562;BME280;43397;51.530;5.974;2022-08-19T02:54:52;100973.72;;;17.77;100.00
57562;BME280;43397;51.530;5.974;2022-08-19T02:57:18;100970.44;;;17.94;100.00
57562;BME280;43397;51.530;5.974;2022-08-19T02:59:44;100959.41;;;18.02;100.00
57562;BME280;43397;51.530;5.974;2022-08-19T03:02:09;100967.50;;;18.00;100.00
57562;BME280;43397;51.530;5.974;2022-08-19T03:04:35;100969.13;;;18.06;100.00
57562;BME280;43397;51.530;5.974;2022-08-19T03:07:03;100963.91;;;18.01;100.00
57562;BME280;43397;51.530;5.974;2022-08-19T03:09:28;100956.28;;;17.89;100.00
57562;BME280;43397;51.530;5.974;2022-08-19T03:11:54;100959.53;;;17.99;100.00
57562;BME280;43397;51.530;5.974;2022-08-19T03:14:20;100967.59;;;17.99;100.00
57562;BME280;43397;51.530;5.974;2022-08-19T03:16:48;100971.88;;;17.79;100.00
57562;BME280;43397;51.530;5.974;2022-08-19T03:19:16;100968.22;;;17.80;100.00
57562;BME280;43397;51.530;5.974;2022-08-19T03:21:43;100963.56;;;17.60;100.00
57562;BME280;43397;51.530;5.974;2022-08-19T03:24:11;100980.19;;;17.46;100.00
57562;BME280;43397;51.530;5.974;2022-08-19T03:26:39;100978.63;;;17.39;100.00
57562;BME280;43397;51.530;5.974;2022-08-19T03:29:06;100991.59;;;17.53;100.00
57562;BME280;43397;51.530;5.974;2022-08-19T03:31:32;100995.97;;;17.81;100.00
57562;BME280;43397;51.530;5.974;2022-08-19T03:33:57;100986.78;;;17.63;100.00
57562;BME280;43397;51.530;5.974;2022-08-19T03:36:26;100987.34;;;17.73;100.00
57562;BME280;43397;51.530;5.974;2022-08-19T03:38:54;100979.84;;;17.81;100.00
57562;BME280;43397;51.530;5.974;2022-08-19T03:41:24;100979.06;;;18.27;100.00
57562;BME280;43397;51.530;5.974;2022-08-19T03:43:51;100979.09;;;18.02;100.00
57562;BME280;43397;51.530;5.974;2022-08-19T03:46:19;100979.66;;;17.87;100.00
57562;BME280;43397;51.530;5.974;2022-08-19T03:48:46;100980.19;;;17.72;100.00
57562;BME280;43397;51.530;5.974;2022-08-19T03:51:16;100978.09;;;17.55;100.00
57562;BME280;43397;51.530;5.974;2022-08-19T03:53:43;100977.44;;;17.48;100.00
57562;BME280;43397;51.530;5.974;2022-08-19T03:56:09;100988.13;;;17.50;100.00
57562;BME280;43397;51.530;5.974;2022-08-19T03:58:36;100984.56;;;17.49;100.00
57562;BME280;43397;51.530;5.974;2022-08-19T04:01:07;100981.78;;;17.52;100.00
57562;BME280;43397;51.530;5.974;2022-08-19T04:03:33;100975.78;;;17.44;100.00
57562;BME280;43397;51.530;5.974;2022-08-19T04:05:59;100977.63;;;17.42;100.00
57562;BME280;43397;51.530;5.974;2022-08-19T04:08:24;100984.50;;;17.51;100.00
57562;BME280;43397;51.530;5.974;2022-08-19T04:10:50;100975.34;;;17.56;100.00
57562;BME280;43397;51.530;5.974;2022-08-19T04:13:17;100974.53;;;17.54;100.00
57562;BME280;43397;51.530;5.974;2022-08-19T04:15:45;100973.28;;;17.89;100.00
57562;BME280;43397;51.530;5.974;2022-08-19T04:18:12;100969.34;;;17.75;100.00
57562;BME280;43397;51.530;5.974;2022-08-19T04:20:40;100975.09;;;17.64;100.00
57562;BME280;43397;51.530;5.974;2022-08-19T04:23:05;100975.03;;;17.65;100.00
57562;BME280;43397;51.530;5.974;2022-08-19T04:25:35;100973.81;;;17.74;100.00
57562;BME280;43397;51.530;5.974;2022-08-19T04:28:01;100977.84;;;17.62;100.00
57562;BME280;43397;51.530;5.974;2022-08-19T04:30:27;100966.31;;;17.59;100.00
57562;BME280;43397;51.530;5.974;2022-08-19T04:32:54;100974.75;;;17.48;100.00
57562;BME280;43397;51.530;5.974;2022-08-19T04:35:21;100975.34;;;17.56;100.00
57562;BME280;43397;51.530;5.974;2022-08-19T04:37:47;100977.13;;;17.57;100.00
57562;BME280;43397;51.530;5.974;2022-08-19T04:40:13;100973.63;;;17.55;100.00
57562;BME280;43397;51.530;5.974;2022-08-19T04:42:38;100972.25;;;17.42;100.00
57562;BME280;43397;51.530;5.974;2022-08-19T04:45:05;100977.06;;;17.34;100.00
57562;BME280;43397;51.530;5.974;2022-08-19T04:47:32;100967.56;;;17.74;100.00
57562;BME280;43397;51.530;5.974;2022-08-19T04:49:59;100981.03;;;18.22;100.00
57562;BME280;43397;51.530;5.974;2022-08-19T04:52:25;100969.53;;;18.42;100.00
57562;BME280;43397;51.530;5.974;2022-08-19T04:54:51;100964.09;;;18.66;100.00
57562;BME280;43397;51.530;5.974;2022-08-19T04:57:17;100964.88;;;18.91;100.00
57562;BME280;43397;51.530;5.974;2022-08-19T04:59:42;100968.91;;;19.03;100.00
57562;BME280;43397;51.530;5.974;2022-08-19T05:02:09;100975.72;;;19.12;100.00
57562;BME280;43397;51.530;5.974;2022-08-19T05:04:36;100976.84;;;19.06;100.00
57562;BME280;43397;51.530;5.974;2022-08-19T05:07:03;100981.63;;;19.20;100.00
57562;BME280;43397;51.530;5.974;2022-08-19T05:09:29;100986.66;;;19.29;100.00
57562;BME280;43397;51.530;5.974;2022-08-19T05:11:55;100984.47;;;19.17;100.00
57562;BME280;43397;51.530;5.974;2022-08-19T05:14:21;100992.94;;;19.30;100.00
57562;BME280;43397;51.530;5.974;2022-08-19T05:16:47;100985.66;;;19.32;100.00
57562;BME280;43397;51.530;5.974;2022-08-19T05:19:13;100984.50;;;19.38;100.00
57562;BME280;43397;51.530;5.974;2022-08-19T05:21:39;100977.09;;;19.43;100.00
57562;BME280;43397;51.530;5.974;2022-08-19T05:24:07;100988.16;;;19.37;100.00
57562;BME280;43397;51.530;5.974;2022-08-19T05:26:33;100989.63;;;19.44;100.00
57562;BME280;43397;51.530;5.974;2022-08-19T05:28:59;101001.16;;;19.47;100.00
57562;BME280;43397;51.530;5.974;2022-08-19T05:31:24;100990.66;;;19.41;100.00
57562;BME280;43397;51.530;5.974;2022-08-19T05:33:50;101002.50;;;19.37;100.00
57562;BME280;43397;51.530;5.974;2022-08-19T05:36:16;101007.06;;;19.35;100.00
57562;BME280;43397;51.530;5.974;2022-08-19T05:38:42;100999.75;;;19.39;100.00
57562;BME280;43397;51.530;5.974;2022-08-19T05:41:10;101000.63;;;19.39;100.00
57562;BME280;43397;51.530;5.974;2022-08-19T05:43:36;101007.56;;;19.45;100.00
57562;BME280;43397;51.530;5.974;2022-08-19T05:46:03;101004.25;;;19.38;100.00
57562;BME280;43397;51.530;5.974;2022-08-19T05:48:29;101000.66;;;19.38;100.00
57562;BME280;43397;51.530;5.974;2022-08-19T05:50:54;101001.63;;;19.37;100.00
57562;BME280;43397;51.530;5.974;2022-08-19T05:53:20;101007.06;;;19.35;100.00
57562;BME280;43397;51.530;5.974;2022-08-19T05:55:46;101001.50;;;19.18;100.00
57562;BME280;43397;51.530;5.974;2022-08-19T05:58:13;100996.03;;;19.21;100.00
57562;BME280;43397;51.530;5.974;2022-08-19T06:00:39;101002.28;;;19.21;100.00
57562;BME280;43397;51.530;5.974;2022-08-19T06:03:05;101000.56;;;19.41;100.00
57562;BME280;43397;51.530;5.974;2022-08-19T06:05:33;101001.56;;;19.38;100.00
57562;BME280;43397;51.530;5.974;2022-08-19T06:08:04;101007.13;;;19.33;100.00
57562;BME280;43397;51.530;5.974;2022-08-19T06:10:36;101012.88;;;19.46;100.00
57562;BME280;43397;51.530;5.974;2022-08-19T06:13:02;101014.75;;;19.66;100.00
57562;BME280;43397;51.530;5.974;2022-08-19T06:15:40;101015.28;;;19.75;100.00
57562;BME280;43397;51.530;5.974;2022-08-19T06:18:06;101020.63;;;19.76;100.00
57562;BME280;43397;51.530;5.974;2022-08-19T06:20:34;101018.94;;;19.73;100.00
57562;BME280;43397;51.530;5.974;2022-08-19T06:23:05;101014.38;;;19.76;100.00
57562;BME280;43397;51.530;5.974;2022-08-19T06:25:31;101010.97;;;19.70;100.00
57562;BME280;43397;51.530;5.974;2022-08-19T06:27:57;101015.69;;;19.86;100.00
57562;BME280;43397;51.530;5.974;2022-08-19T06:30:29;101015.38;;;19.93;100.00
57562;BME280;43397;51.530;5.974;2022-08-19T06:32:56;101017.41;;;19.88;100.00
57562;BME280;43397;51.530;5.974;2022-08-19T06:35:22;101011.91;;;19.90;100.00
57562;BME280;43397;51.530;5.974;2022-08-19T06:37:48;101017.19;;;19.93;100.00
57562;BME280;43397;51.530;5.974;2022-08-19T06:40:14;101017.31;;;19.90;100.00
57562;BME280;43397;51.530;5.974;2022-08-19T06:42:39;101010.84;;;19.73;100.00
57562;BME280;43397;51.530;5.974;2022-08-19T06:45:06;101016.03;;;19.99;100.00
57562;BME280;43397;51.530;5.974;2022-08-19T06:47:32;101023.72;;;19.87;100.00
57562;BME280;43397;51.530;5.974;2022-08-19T06:50:00;101030.69;;;19.93;100.00
57562;BME280;43397;51.530;5.974;2022-08-19T06:52:26;101029.94;;;20.10;100.00
57562;BME280;43397;51.530;5.974;2022-08-19T06:54:52;101026.47;;;20.06;100.00
57562;BME280;43397;51.530;5.974;2022-08-19T06:57:18;101032.91;;;20.04;100.00
57562;BME280;43397;51.530;5.974;2022-08-19T06:59:43;101037.00;;;20.12;100.00
57562;BME280;43397;51.530;5.974;2022-08-19T07:02:09;101035.94;;;19.96;100.00
57562;BME280;43397;51.530;5.974;2022-08-19T07:04:35;101034.44;;;20.09;100.00
57562;BME280;43397;51.530;5.974;2022-08-19T07:07:06;101044.03;;;20.17;100.00
57562;BME280;43397;51.530;5.974;2022-08-19T07:09:32;101037.00;;;20.12;100.00
57562;BME280;43397;51.530;5.974;2022-08-19T07:11:58;101031.63;;;20.12;100.00
57562;BME280;43397;51.530;5.974;2022-08-19T07:14:26;101038.81;;;20.12;100.00
57562;BME280;43397;51.530;5.974;2022-08-19T07:16:54;101036.31;;;20.28;100.00
57562;BME280;43397;51.530;5.974;2022-08-19T07:19:23;101043.38;;;20.30;100.00
57562;BME280;43397;51.530;5.974;2022-08-19T07:21:50;101037.25;;;20.27;100.00
57562;BME280;43397;51.530;5.974;2022-08-19T07:24:18;101042.16;;;20.38;100.00
57562;BME280;43397;51.530;5.974;2022-08-19T07:26:45;101043.66;;;20.24;100.00
57562;BME280;43397;51.530;5.974;2022-08-19T07:29:12;101042.78;;;20.24;100.00
57562;BME280;43397;51.530;5.974;2022-08-19T07:31:38;101044.84;;;20.38;100.00
57562;BME280;43397;51.530;5.974;2022-08-19T07:34:06;101041.13;;;20.40;100.00
57562;BME280;43397;51.530;5.974;2022-08-19T07:36:34;101040.94;;;20.45;100.00
57562;BME280;43397;51.530;5.974;2022-08-19T07:39:05;101047.84;;;20.71;100.00
57562;BME280;43397;51.530;5.974;2022-08-19T07:41:34;101046.81;;;20.73;100.00
57562;BME280;43397;51.530;5.974;2022-08-19T07:44:00;101043.16;;;20.74;100.00
57562;BME280;43397;51.530;5.974;2022-08-19T07:46:26;101037.75;;;20.74;100.00
57562;BME280;43397;51.530;5.974;2022-08-19T07:48:52;101046.88;;;20.72;100.00
57562;BME280;43397;51.530;5.974;2022-08-19T07:51:20;101049.59;;;20.72;100.00
57562;BME280;43397;51.530;5.974;2022-08-19T07:53:48;101052.72;;;20.82;100.00
57562;BME280;43397;51.530;5.974;2022-08-19T07:56:14;101060.25;;;20.94;100.00
57562;BME280;43397;51.530;5.974;2022-08-19T07:58:43;101061.25;;;21.10;100.00
57562;BME280;43397;51.530;5.974;2022-08-19T08:01:09;101062.69;;;21.17;100.00
57562;BME280;43397;51.530;5.974;2022-08-19T08:03:37;101062.94;;;21.13;100.00
57562;BME280;43397;51.530;5.974;2022-08-19T08:06:05;101063.72;;;21.15;100.00
57562;BME280;43397;51.530;5.974;2022-08-19T08:08:31;101068.84;;;21.02;99.53
57562;BME280;43397;51.530;5.974;2022-08-19T08:10:57;101075.41;;;20.96;99.06
57562;BME280;43397;51.530;5.974;2022-08-19T08:13:23;101079.22;;;20.92;99.64
57562;BME280;43397;51.530;5.974;2022-08-19T08:15:50;101084.03;;;21.05;100.00
57562;BME280;43397;51.530;5.974;2022-08-19T08:18:16;101085.34;;;21.34;100.00
57562;BME280;43397;51.530;5.974;2022-08-19T08:20:41;101088.81;;;21.55;97.19
57562;BME280;43397;51.530;5.974;2022-08-19T08:23:07;101082.38;;;21.57;94.73
57562;BME280;43397;51.530;5.974;2022-08-19T08:25:34;101086.09;;;21.55;96.31
57562;BME280;43397;51.530;5.974;2022-08-19T08:28:01;101092.63;;;21.68;94.21
57562;BME280;43397;51.530;5.974;2022-08-19T08:30:29;101092.03;;;21.81;93.88
57562;BME280;43397;51.530;5.974;2022-08-19T08:32:57;101092.09;;;21.96;91.34
57562;BME280;43397;51.530;5.974;2022-08-19T08:35:23;101092.09;;;22.14;90.12
57562;BME280;43397;51.530;5.974;2022-08-19T08:37:51;101103.34;;;22.24;89.10
57562;BME280;43397;51.530;5.974;2022-08-19T08:40:22;101099.59;;;22.26;87.51
57562;BME280;43397;51.530;5.974;2022-08-19T08:42:52;101098.25;;;22.00;88.91
57562;BME280;43397;51.530;5.974;2022-08-19T08:45:21;101110.50;;;21.90;89.90
57562;BME280;43397;51.530;5.974;2022-08-19T08:47:51;101097.25;;;22.18;88.90
57562;BME280;43397;51.530;5.974;2022-08-19T08:50:25;101091.59;;;22.41;91.72
57562;BME280;43397;51.530;5.974;2022-08-19T08:52:56;101097.94;;;22.57;88.54
57562;BME280;43397;51.530;5.974;2022-08-19T08:55:26;101099.50;;;22.45;84.40
57562;BME280;43397;51.530;5.974;2022-08-19T08:57:55;101095.38;;;22.71;84.53
57562;BME280;43397;51.530;5.974;2022-08-19T09:00:27;101093.78;;;22.67;84.71
57562;BME280;43397;51.530;5.974;2022-08-19T09:02:56;101092.22;;;22.79;81.33
57562;BME280;43397;51.530;5.974;2022-08-19T09:05:26;101084.00;;;22.80;79.81
57562;BME280;43397;51.530;5.974;2022-08-19T09:08:00;101090.31;;;22.81;79.26
57562;BME280;43397;51.530;5.974;2022-08-19T09:10:31;101080.06;;;22.86;79.79
57562;BME280;43397;51.530;5.974;2022-08-19T09:13:04;101083.38;;;23.09;80.50
57562;BME280;43397;51.530;5.974;2022-08-19T09:15:36;101080.66;;;23.09;79.80
57562;BME280;43397;51.530;5.974;2022-08-19T09:18:05;101083.59;;;23.36;80.50
57562;BME280;43397;51.530;5.974;2022-08-19T09:20:32;101088.44;;;23.31;77.70
57562;BME280;43397;51.530;5.974;2022-08-19T09:22:58;101084.81;;;23.46;78.96
57562;BME280;43397;51.530;5.974;2022-08-19T09:25:25;101074.06;;;23.45;77.38
57562;BME280;43397;51.530;5.974;2022-08-19T09:27:52;101074.09;;;23.29;75.46
57562;BME280;43397;51.530;5.974;2022-08-19T09:30:22;101083.16;;;23.28;76.38
57562;BME280;43397;51.530;5.974;2022-08-19T09:32:48;101082.19;;;23.45;76.01
57562;BME280;43397;51.530;5.974;2022-08-19T09:35:14;101073.25;;;23.58;75.41
57562;BME280;43397;51.530;5.974;2022-08-19T09:37:42;101086.94;;;23.87;75.78
57562;BME280;43397;51.530;5.974;2022-08-19T09:40:09;101077.00;;;24.16;72.10
57562;BME280;43397;51.530;5.974;2022-08-19T09:42:39;101087.31;;;24.11;73.21
57562;BME280;43397;51.530;5.974;2022-08-19T09:45:22;101076.38;;;23.83;72.90
57562;BME280;43397;51.530;5.974;2022-08-19T09:47:50;101083.06;;;24.36;71.72
57562;BME280;43397;51.530;5.974;2022-08-19T09:50:17;101093.41;;;24.15;70.36
57562;BME280;43397;51.530;5.974;2022-08-19T09:52:45;101087.22;;;24.27;69.21
57562;BME280;43397;51.530;5.974;2022-08-19T09:55:16;101088.44;;;24.52;69.36
57562;BME280;43397;51.530;5.974;2022-08-19T09:57:44;101084.16;;;24.62;72.96
57562;BME280;43397;51.530;5.974;2022-08-19T10:00:12;101091.56;;;24.74;67.08
57562;BME280;43397;51.530;5.974;2022-08-19T10:02:39;101087.41;;;24.24;67.32
57562;BME280;43397;51.530;5.974;2022-08-19T10:05:05;101074.94;;;24.64;66.50
57562;BME280;43397;51.530;5.974;2022-08-19T10:07:31;101076.09;;;24.60;66.67
57562;BME280;43397;51.530;5.974;2022-08-19T10:09:58;101085.13;;;24.90;65.33
57562;BME280;43397;51.530;5.974;2022-08-19T10:12:24;101094.06;;;24.92;63.83
57562;BME280;43397;51.530;5.974;2022-08-19T10:14:50;101092.44;;;25.16;64.32
57562;BME280;43397;51.530;5.974;2022-08-19T10:17:17;101095.09;;;25.45;61.84
57562;BME280;43397;51.530;5.974;2022-08-19T10:19:43;101095.78;;;25.49;59.47
57562;BME280;43397;51.530;5.974;2022-08-19T10:22:08;101090.97;;;25.39;60.62
57562;BME280;43397;51.530;5.974;2022-08-19T10:24:34;101084.53;;;25.68;64.52
57562;BME280;43397;51.530;5.974;2022-08-19T10:27:02;101088.63;;;25.60;61.28
57562;BME280;43397;51.530;5.974;2022-08-19T10:29:28;101089.53;;;25.74;60.44
57562;BME280;43397;51.530;5.974;2022-08-19T10:31:54;101085.44;;;25.81;63.13
57562;BME280;43397;51.530;5.974;2022-08-19T10:34:20;101083.84;;;25.91;59.62
57562;BME280;43397;51.530;5.974;2022-08-19T10:36:46;101087.47;;;25.92;61.24
57562;BME280;43397;51.530;5.974;2022-08-19T10:39:11;101079.22;;;25.79;61.26
57562;BME280;43397;51.530;5.974;2022-08-19T10:41:38;101088.47;;;25.76;64.76
57562;BME280;43397;51.530;5.974;2022-08-19T10:44:07;101086.06;;;25.84;59.76
57562;BME280;43397;51.530;5.974;2022-08-19T10:46:37;101079.31;;;25.77;60.89
57562;BME280;43397;51.530;5.974;2022-08-19T10:49:04;101069.72;;;26.12;64.22
57562;BME280;43397;51.530;5.974;2022-08-19T10:51:31;101076.13;;;26.11;58.72
57562;BME280;43397;51.530;5.974;2022-08-19T10:53:58;101070.59;;;26.25;57.66
57562;BME280;43397;51.530;5.974;2022-08-19T10:56:26;101082.16;;;26.29;59.22
57562;BME280;43397;51.530;5.974;2022-08-19T10:58:52;101072.31;;;26.26;61.30
57562;BME280;43397;51.530;5.974;2022-08-19T11:01:19;101071.56;;;26.37;59.65
57562;BME280;43397;51.530;5.974;2022-08-19T11:03:45;101077.00;;;26.37;61.43
57562;BME280;43397;51.530;5.974;2022-08-19T11:06:11;101076.50;;;26.70;61.38
57562;BME280;43397;51.530;5.974;2022-08-19T11:08:37;101075.59;;;26.82;56.41
57562;BME280;43397;51.530;5.974;2022-08-19T11:11:04;101081.88;;;26.96;60.81
57562;BME280;43397;51.530;5.974;2022-08-19T11:13:34;101089.44;;;26.54;62.88
57562;BME280;43397;51.530;5.974;2022-08-19T11:16:01;101092.81;;;26.19;61.70
57562;BME280;43397;51.530;5.974;2022-08-19T11:18:29;101094.00;;;26.15;61.47
57562;BME280;43397;51.530;5.974;2022-08-19T11:20:55;101082.91;;;26.05;64.74
57562;BME280;43397;51.530;5.974;2022-08-19T11:23:30;101087.06;;;25.83;65.93
57562;BME280;43397;51.530;5.974;2022-08-19T11:25:56;101072.78;;;25.80;65.26
57562;BME280;43397;51.530;5.974;2022-08-19T11:28:22;101070.31;;;25.50;66.57
57562;BME280;43397;51.530;5.974;2022-08-19T11:30:48;101078.28;;;25.93;65.77
57562;BME280;43397;51.530;5.974;2022-08-19T11:33:13;101083.22;;;26.26;64.92
57562;BME280;43397;51.530;5.974;2022-08-19T11:35:41;101078.03;;;26.61;61.41
57562;BME280;43397;51.530;5.974;2022-08-19T11:38:07;101077.38;;;26.58;58.08
57562;BME280;43397;51.530;5.974;2022-08-19T11:40:32;101081.50;;;26.76;58.30
57562;BME280;43397;51.530;5.974;2022-08-19T11:42:58;101072.88;;;26.70;58.26
57562;BME280;43397;51.530;5.974;2022-08-19T11:45:25;101065.31;;;26.99;57.48
57562;BME280;43397;51.530;5.974;2022-08-19T11:47:51;101065.22;;;27.37;55.60
57562;BME280;43397;51.530;5.974;2022-08-19T11:50:17;101065.16;;;26.76;55.44
57562;BME280;43397;51.530;5.974;2022-08-19T11:52:45;101067.00;;;27.13;58.46
57562;BME280;43397;51.530;5.974;2022-08-19T11:55:12;101069.16;;;27.33;57.97
57562;BME280;43397;51.530;5.974;2022-08-19T11:57:38;101065.81;;;27.65;54.42
57562;BME280;43397;51.530;5.974;2022-08-19T12:00:05;101074.31;;;27.12;54.87
57562;BME280;43397;51.530;5.974;2022-08-19T12:02:31;101071.13;;;26.81;57.07
57562;BME280;43397;51.530;5.974;2022-08-19T12:04:57;101069.59;;;26.90;56.16
57562;BME280;43397;51.530;5.974;2022-08-19T12:07:24;101073.84;;;27.31;55.04
57562;BME280;43397;51.530;5.974;2022-08-19T12:09:51;101070.72;;;27.12;56.28
57562;BME280;43397;51.530;5.974;2022-08-19T12:12:17;101068.59;;;27.52;55.66
57562;BME280;43397;51.530;5.974;2022-08-19T12:14:42;101070.28;;;27.66;56.85
57562;BME280;43397;51.530;5.974;2022-08-19T12:17:08;101068.78;;;27.86;56.37
57562;BME280;43397;51.530;5.974;2022-08-19T12:19:35;101063.50;;;27.83;55.24
57562;BME280;43397;51.530;5.974;2022-08-19T12:22:01;101074.63;;;27.93;54.53
57562;BME280;43397;51.530;5.974;2022-08-19T12:24:30;101058.81;;;28.20;52.21
57562;BME280;43397;51.530;5.974;2022-08-19T12:26:57;101066.84;;;28.10;51.93
57562;BME280;43397;51.530;5.974;2022-08-19T12:29:23;101059.91;;;27.82;51.92
57562;BME280;43397;51.530;5.974;2022-08-19T12:31:49;101068.31;;;27.92;53.74
57562;BME280;43397;51.530;5.974;2022-08-19T12:34:15;101063.28;;;28.21;52.99
57562;BME280;43397;51.530;5.974;2022-08-19T12:36:41;101051.84;;;28.39;52.24
57562;BME280;43397;51.530;5.974;2022-08-19T12:39:07;101061.09;;;28.49;55.15
57562;BME280;43397;51.530;5.974;2022-08-19T12:41:32;101055.34;;;28.29;50.63